sensor_id;sensor_type;location;lat;lon;timestamp;temperature;humidity
23520;DHT22;11936;50.820;4.336;2023-04-06T00:02:06;11.20;78.80
23520;DHT22;11936;50.820;4.336;2023-04-06T00:04:34;11.20;78.70
23520;DHT22;11936;50.820;4.336;2023-04-06T00:07:00;11.20;78.90
23520;DHT22;11936;50.820;4.336;2023-04-06T00:09:26;11.30;78.90
23520;DHT22;11936;50.820;4.336;2023-04-06T00:11:51;11.20;79.70
23520;DHT22;11936;50.820;4.336;2023-04-06T00:14:17;11.20;79.70
23520;DHT22;11936;50.820;4.336;2023-04-06T00:16:43;11.30;79.90
23520;DHT22;11936;50.820;4.336;2023-04-06T00:19:08;11.30;79.80
23520;DHT22;11936;50.820;4.336;2023-04-06T00:21:34;11.20;80.00
23520;DHT22;11936;50.820;4.336;2023-04-06T00:24:00;11.30;79.70
23520;DHT22;11936;50.820;4.336;2023-04-06T00:26:25;11.20;79.60
23520;DHT22;11936;50.820;4.336;2023-04-06T00:28:51;11.30;79.80
23520;DHT22;11936;50.820;4.336;2023-04-06T00:31:17;11.30;79.80
23520;DHT22;11936;50.820;4.336;2023-04-06T00:33:43;11.40;79.90
23520;DHT22;11936;50.820;4.336;2023-04-06T00:36:09;11.20;79.80
23520;DHT22;11936;50.820;4.336;2023-04-06T00:38:34;11.20;80.50
23520;DHT22;11936;50.820;4.336;2023-04-06T00:41:00;11.20;80.20
23520;DHT22;11936;50.820;4.336;2023-04-06T00:43:26;11.30;80.70
23520;DHT22;11936;50.820;4.336;2023-04-06T00:45:52;11.30;79.80
23520;DHT22;11936;50.820;4.336;2023-04-06T00:48:18;11.20;80.70
23520;DHT22;11936;50.820;4.336;2023-04-06T00:50:43;11.20;80.50
23520;DHT22;11936;50.820;4.336;2023-04-06T00:53:09;11.20;80.60
23520;DHT22;11936;50.820;4.336;2023-04-06T00:55:35;11.20;80.60
23520;DHT22;11936;50.820;4.336;2023-04-06T00:58:02;11.20;80.90
23520;DHT22;11936;50.820;4.336;2023-04-06T01:00:27;11.30;81.00
23520;DHT22;11936;50.820;4.336;2023-04-06T01:02:53;11.30;80.50
23520;DHT22;11936;50.820;4.336;2023-04-06T01:05:21;11.20;80.90
23520;DHT22;11936;50.820;4.336;2023-04-06T01:07:47;11.20;81.20
23520;DHT22;11936;50.820;4.336;2023-04-06T01:10:23;11.10;81.30
23520;DHT22;11936;50.820;4.336;2023-04-06T01:12:49;11.00;81.90
23520;DHT22;11936;50.820;4.336;2023-04-06T01:15:14;11.20;81.90
23520;DHT22;11936;50.820;4.336;2023-04-06T01:17:40;11.20;81.40
23520;DHT22;11936;50.820;4.336;2023-04-06T01:20:07;11.10;82.50
23520;DHT22;11936;50.820;4.336;2023-04-06T01:22:32;11.10;82.50
23520;DHT22;11936;50.820;4.336;2023-04-06T01:24:58;11.00;81.90
23520;DHT22;11936;50.820;4.336;2023-04-06T01:27:24;11.00;81.90
23520;DHT22;11936;50.820;4.336;2023-04-06T01:29:51;11.00;82.50
23520;DHT22;11936;50.820;4.336;2023-04-06T01:32:17;11.00;83.40
23520;DHT22;11936;50.820;4.336;2023-04-06T01:34:43;11.00;82.70
23520;DHT22;11936;50.820;4.336;2023-04-06T01:37:08;10.90;83.00
23520;DHT22;11936;50.820;4.336;2023-04-06T01:39:34;10.90;83.30
23520;DHT22;11936;50.820;4.336;2023-04-06T01:42:00;10.90;83.30
23520;DHT22;11936;50.820;4.336;2023-04-06T01:44:25;10.90;83.70
23520;DHT22;11936;50.820;4.336;2023-04-06T01:46:54;10.90;83.90
23520;DHT22;11936;50.820;4.336;2023-04-06T01:49:20;10.90;83.70
23520;DHT22;11936;50.820;4.336;2023-04-06T01:51:45;10.80;83.80
23520;DHT22;11936;50.820;4.336;2023-04-06T01:54:11;10.80;84.20
23520;DHT22;11936;50.820;4.336;2023-04-06T01:56:37;10.80;84.40
23520;DHT22;11936;50.820;4.336;2023-04-06T01:59:02;10.60;84.80
23520;DHT22;11936;50.820;4.336;2023-04-06T02:01:28;10.50;85.30
23520;DHT22;11936;50.820;4.336;2023-04-06T02:03:54;10.60;85.10
23520;DHT22;11936;50.820;4.336;2023-04-06T02:06:19;10.50;85.20
23520;DHT22;11936;50.820;4.336;2023-04-06T02:08:45;10.60;85.20
23520;DHT22;11936;50.820;4.336;2023-04-06T02:11:11;10.50;85.00
23520;DHT22;11936;50.820;4.336;2023-04-06T02:13:37;10.60;85.20
23520;DHT22;11936;50.820;4.336;2023-04-06T02:16:02;10.60;85.40
23520;DHT22;11936;50.820;4.336;2023-04-06T02:18:30;10.60;84.80
23520;DHT22;11936;50.820;4.336;2023-04-06T02:20:59;10.60;85.00
23520;DHT22;11936;50.820;4.336;2023-04-06T02:23:24;10.60;85.10
23520;DHT22;11936;50.820;4.336;2023-04-06T02:25:50;10.50;85.80
23520;DHT22;11936;50.820;4.336;2023-04-06T02:28:16;10.50;85.90
23520;DHT22;11936;50.820;4.336;2023-04-06T02:30:41;10.50;85.90
23520;DHT22;11936;50.820;4.336;2023-04-06T02:33:07;10.50;86.10
23520;DHT22;11936;50.820;4.336;2023-04-06T02:35:32;10.50;86.00
23520;DHT22;11936;50.820;4.336;2023-04-06T02:37:58;10.60;86.00
23520;DHT22;11936;50.820;4.336;2023-04-06T02:40:24;10.60;85.80
23520;DHT22;11936;50.820;4.336;2023-04-06T02:42:49;10.60;86.40
23520;DHT22;11936;50.820;4.336;2023-04-06T02:45:15;10.60;85.70
23520;DHT22;11936;50.820;4.336;2023-04-06T02:47:42;10.50;85.60
23520;DHT22;11936;50.820;4.336;2023-04-06T02:50:08;10.50;86.00
23520;DHT22;11936;50.820;4.336;2023-04-06T02:52:33;10.40;86.00
23520;DHT22;11936;50.820;4.336;2023-04-06T02:54:59;10.40;85.60
23520;DHT22;11936;50.820;4.336;2023-04-06T02:57:25;10.50;85.40
23520;DHT22;11936;50.820;4.336;2023-04-06T02:59:50;10.60;85.50
23520;DHT22;11936;50.820;4.336;2023-04-06T03:02:16;10.60;85.70
23520;DHT22;11936;50.820;4.336;2023-04-06T03:04:42;10.60;85.50
23520;DHT22;11936;50.820;4.336;2023-04-06T03:07:08;10.60;85.40
23520;DHT22;11936;50.820;4.336;2023-04-06T03:09:36;10.60;85.50
23520;DHT22;11936;50.820;4.336;2023-04-06T03:12:02;10.60;85.00
23520;DHT22;11936;50.820;4.336;2023-04-06T03:14:27;10.60;85.30
23520;DHT22;11936;50.820;4.336;2023-04-06T03:16:53;10.60;85.60
23520;DHT22;11936;50.820;4.336;2023-04-06T03:19:19;10.50;86.00
23520;DHT22;11936;50.820;4.336;2023-04-06T03:21:44;10.50;85.60
23520;DHT22;11936;50.820;4.336;2023-04-06T03:24:11;10.40;86.40
23520;DHT22;11936;50.820;4.336;2023-04-06T03:26:39;10.40;86.00
23520;DHT22;11936;50.820;4.336;2023-04-06T03:29:05;10.30;86.60
23520;DHT22;11936;50.820;4.336;2023-04-06T03:31:30;10.40;86.60
23520;DHT22;11936;50.820;4.336;2023-04-06T03:33:56;10.40;86.40
23520;DHT22;11936;50.820;4.336;2023-04-06T03:36:22;10.40;86.40
23520;DHT22;11936;50.820;4.336;2023-04-06T03:38:47;10.40;86.10
23520;DHT22;11936;50.820;4.336;2023-04-06T03:41:13;10.30;86.30
23520;DHT22;11936;50.820;4.336;2023-04-06T03:43:39;10.20;86.70
23520;DHT22;11936;50.820;4.336;2023-04-06T03:46:04;10.20;87.00
23520;DHT22;11936;50.820;4.336;2023-04-06T03:48:30;10.20;87.00
23520;DHT22;11936;50.820;4.336;2023-04-06T03:50:55;10.30;86.70
23520;DHT22;11936;50.820;4.336;2023-04-06T03:53:24;10.30;86.80
23520;DHT22;11936;50.820;4.336;2023-04-06T03:55:50;10.30;86.90
23520;DHT22;11936;50.820;4.336;2023-04-06T03:58:16;10.20;87.10
23520;DHT22;11936;50.820;4.336;2023-04-06T04:00:41;10.30;86.80
23520;DHT22;11936;50.820;4.336;2023-04-06T04:03:07;10.30;86.60
23520;DHT22;11936;50.820;4.336;2023-04-06T04:05:32;10.40;86.60
23520;DHT22;11936;50.820;4.336;2023-04-06T04:07:58;10.40;86.20
23520;DHT22;11936;50.820;4.336;2023-04-06T04:10:24;10.40;86.20
23520;DHT22;11936;50.820;4.336;2023-04-06T04:12:49;10.40;86.80
23520;DHT22;11936;50.820;4.336;2023-04-06T04:15:15;10.50;86.80
23520;DHT22;11936;50.820;4.336;2023-04-06T04:17:41;10.50;85.90
23520;DHT22;11936;50.820;4.336;2023-04-06T04:20:07;10.50;86.60
23520;DHT22;11936;50.820;4.336;2023-04-06T04:22:33;10.60;85.90
23520;DHT22;11936;50.820;4.336;2023-04-06T04:24:58;10.60;86.50
23520;DHT22;11936;50.820;4.336;2023-04-06T04:27:24;10.50;86.00
23520;DHT22;11936;50.820;4.336;2023-04-06T04:29:50;10.60;85.70
23520;DHT22;11936;50.820;4.336;2023-04-06T04:32:16;10.70;85.50
23520;DHT22;11936;50.820;4.336;2023-04-06T04:34:41;10.60;85.00
23520;DHT22;11936;50.820;4.336;2023-04-06T04:37:07;10.60;84.90
23520;DHT22;11936;50.820;4.336;2023-04-06T04:39:33;10.70;85.50
23520;DHT22;11936;50.820;4.336;2023-04-06T04:41:58;10.80;85.40
23520;DHT22;11936;50.820;4.336;2023-04-06T04:44:24;10.80;85.50
23520;DHT22;11936;50.820;4.336;2023-04-06T04:46:49;10.70;85.40
23520;DHT22;11936;50.820;4.336;2023-04-06T04:49:15;10.70;86.00
23520;DHT22;11936;50.820;4.336;2023-04-06T04:51:41;10.70;86.40
23520;DHT22;11936;50.820;4.336;2023-04-06T04:54:06;10.70;86.50
23520;DHT22;11936;50.820;4.336;2023-04-06T04:56:32;10.60;87.60
23520;DHT22;11936;50.820;4.336;2023-04-06T04:58:57;10.60;87.10
23520;DHT22;11936;50.820;4.336;2023-04-06T05:01:23;10.70;86.70
23520;DHT22;11936;50.820;4.336;2023-04-06T05:03:49;10.70;86.70
23520;DHT22;11936;50.820;4.336;2023-04-06T05:06:14;10.60;87.00
23520;DHT22;11936;50.820;4.336;2023-04-06T05:08:41;10.60;86.60
23520;DHT22;11936;50.820;4.336;2023-04-06T05:11:06;10.50;86.90
23520;DHT22;11936;50.820;4.336;2023-04-06T05:13:32;10.50;87.30
23520;DHT22;11936;50.820;4.336;2023-04-06T05:15:58;10.50;87.30
23520;DHT22;11936;50.820;4.336;2023-04-06T05:18:24;10.60;87.30
23520;DHT22;11936;50.820;4.336;2023-04-06T05:20:50;10.70;87.10
23520;DHT22;11936;50.820;4.336;2023-04-06T05:23:16;10.70;87.50
23520;DHT22;11936;50.820;4.336;2023-04-06T05:25:42;10.70;88.00
23520;DHT22;11936;50.820;4.336;2023-04-06T05:28:08;10.80;88.00
23520;DHT22;11936;50.820;4.336;2023-04-06T05:30:33;10.80;88.20
23520;DHT22;11936;50.820;4.336;2023-04-06T05:33:01;10.70;88.40
23520;DHT22;11936;50.820;4.336;2023-04-06T05:35:26;10.70;89.20
23520;DHT22;11936;50.820;4.336;2023-04-06T05:37:52;10.70;89.10
23520;DHT22;11936;50.820;4.336;2023-04-06T05:40:18;10.70;89.60
23520;DHT22;11936;50.820;4.336;2023-04-06T05:42:43;10.70;89.40
23520;DHT22;11936;50.820;4.336;2023-04-06T05:45:10;10.70;89.70
23520;DHT22;11936;50.820;4.336;2023-04-06T05:47:36;10.80;89.70
23520;DHT22;11936;50.820;4.336;2023-04-06T05:50:03;10.70;90.00
23520;DHT22;11936;50.820;4.336;2023-04-06T05:52:28;10.80;90.10
23520;DHT22;11936;50.820;4.336;2023-04-06T05:54:54;10.70;90.00
23520;DHT22;11936;50.820;4.336;2023-04-06T05:57:20;10.60;90.20
23520;DHT22;11936;50.820;4.336;2023-04-06T05:59:45;10.40;90.80
23520;DHT22;11936;50.820;4.336;2023-04-06T06:02:11;10.50;91.30
23520;DHT22;11936;50.820;4.336;2023-04-06T06:04:37;10.50;91.10
23520;DHT22;11936;50.820;4.336;2023-04-06T06:07:02;10.60;91.10
23520;DHT22;11936;50.820;4.336;2023-04-06T06:09:28;10.60;91.10
23520;DHT22;11936;50.820;4.336;2023-04-06T06:11:54;10.60;91.20
23520;DHT22;11936;50.820;4.336;2023-04-06T06:14:20;10.70;91.30
23520;DHT22;11936;50.820;4.336;2023-04-06T06:16:47;10.50;91.50
23520;DHT22;11936;50.820;4.336;2023-04-06T06:19:13;10.60;92.00
23520;DHT22;11936;50.820;4.336;2023-04-06T06:21:38;10.60;92.20
23520;DHT22;11936;50.820;4.336;2023-04-06T06:24:04;10.70;92.40
23520;DHT22;11936;50.820;4.336;2023-04-06T06:26:30;10.70;92.90
23520;DHT22;11936;50.820;4.336;2023-04-06T06:28:56;10.80;93.10
23520;DHT22;11936;50.820;4.336;2023-04-06T06:31:22;10.80;93.70
23520;DHT22;11936;50.820;4.336;2023-04-06T06:33:48;10.70;94.70
23520;DHT22;11936;50.820;4.336;2023-04-06T06:36:17;10.70;95.10
23520;DHT22;11936;50.820;4.336;2023-04-06T06:38:44;10.70;95.50
23520;DHT22;11936;50.820;4.336;2023-04-06T06:41:13;10.80;96.20
23520;DHT22;11936;50.820;4.336;2023-04-06T06:43:39;10.80;96.60
23520;DHT22;11936;50.820;4.336;2023-04-06T06:46:04;10.70;97.20
23520;DHT22;11936;50.820;4.336;2023-04-06T06:48:31;10.80;97.90
23520;DHT22;11936;50.820;4.336;2023-04-06T06:50:57;10.60;98.60
23520;DHT22;11936;50.820;4.336;2023-04-06T06:53:23;10.70;99.30
23520;DHT22;11936;50.820;4.336;2023-04-06T06:55:49;10.50;99.60
23520;DHT22;11936;50.820;4.336;2023-04-06T06:58:17;10.70;99.90
23520;DHT22;11936;50.820;4.336;2023-04-06T07:00:43;10.70;99.90
23520;DHT22;11936;50.820;4.336;2023-04-06T07:03:08;10.70;99.90
23520;DHT22;11936;50.820;4.336;2023-04-06T07:05:34;10.70;99.90
23520;DHT22;11936;50.820;4.336;2023-04-06T07:08:00;10.70;99.90
23520;DHT22;11936;50.820;4.336;2023-04-06T07:10:26;10.70;99.90
23520;DHT22;11936;50.820;4.336;2023-04-06T07:12:52;10.70;99.90
23520;DHT22;11936;50.820;4.336;2023-04-06T07:15:17;10.60;99.90
23520;DHT22;11936;50.820;4.336;2023-04-06T07:17:43;10.70;99.90
23520;DHT22;11936;50.820;4.336;2023-04-06T07:20:11;10.60;99.90
23520;DHT22;11936;50.820;4.336;2023-04-06T07:22:38;10.60;99.90
23520;DHT22;11936;50.820;4.336;2023-04-06T07:25:04;10.70;99.90
23520;DHT22;11936;50.820;4.336;2023-04-06T07:27:30;10.70;99.90
23520;DHT22;11936;50.820;4.336;2023-04-06T07:29:56;10.70;99.90
23520;DHT22;11936;50.820;4.336;2023-04-06T07:32:21;10.60;99.90
23520;DHT22;11936;50.820;4.336;2023-04-06T07:34:47;10.60;99.90
23520;DHT22;11936;50.820;4.336;2023-04-06T07:37:13;10.60;99.90
23520;DHT22;11936;50.820;4.336;2023-04-06T07:39:38;10.60;99.90
23520;DHT22;11936;50.820;4.336;2023-04-06T07:42:04;10.80;99.90
23520;DHT22;11936;50.820;4.336;2023-04-06T07:44:30;10.70;99.90
23520;DHT22;11936;50.820;4.336;2023-04-06T07:46:56;10.70;99.90
23520;DHT22;11936;50.820;4.336;2023-04-06T07:49:21;10.70;99.90
23520;DHT22;11936;50.820;4.336;2023-04-06T07:51:48;10.70;99.90
23520;DHT22;11936;50.820;4.336;2023-04-06T07:54:14;10.60;99.90
23520;DHT22;11936;50.820;4.336;2023-04-06T07:56:40;10.70;99.90
23520;DHT22;11936;50.820;4.336;2023-04-06T07:59:05;10.70;99.90
23520;DHT22;11936;50.820;4.336;2023-04-06T08:01:31;10.80;99.90
23520;DHT22;11936;50.820;4.336;2023-04-06T08:03:57;10.70;99.90
23520;DHT22;11936;50.820;4.336;2023-04-06T08:06:23;10.60;99.90
23520;DHT22;11936;50.820;4.336;2023-04-06T08:08:49;10.70;99.90
23520;DHT22;11936;50.820;4.336;2023-04-06T08:11:14;10.70;99.90
23520;DHT22;11936;50.820;4.336;2023-04-06T08:13:40;10.80;99.90
23520;DHT22;11936;50.820;4.336;2023-04-06T08:16:07;10.80;99.90
23520;DHT22;11936;50.820;4.336;2023-04-06T08:18:33;10.80;99.90
23520;DHT22;11936;50.820;4.336;2023-04-06T08:20:58;10.90;99.90
23520;DHT22;11936;50.820;4.336;2023-04-06T08:23:27;10.80;99.90
23520;DHT22;11936;50.820;4.336;2023-04-06T08:25:52;10.80;99.90
23520;DHT22;11936;50.820;4.336;2023-04-06T08:28:20;10.80;99.90
23520;DHT22;11936;50.820;4.336;2023-04-06T08:30:46;10.50;99.90
23520;DHT22;11936;50.820;4.336;2023-04-06T08:33:12;10.70;99.90
23520;DHT22;11936;50.820;4.336;2023-04-06T08:35:38;10.70;99.90
23520;DHT22;11936;50.820;4.336;2023-04-06T08:38:04;10.60;99.90
23520;DHT22;11936;50.820;4.336;2023-04-06T08:40:30;10.50;99.90
23520;DHT22;11936;50.820;4.336;2023-04-06T08:43:01;10.60;99.90
23520;DHT22;11936;50.820;4.336;2023-04-06T08:45:29;10.70;99.90
23520;DHT22;11936;50.820;4.336;2023-04-06T08:48:00;10.70;99.90
23520;DHT22;11936;50.820;4.336;2023-04-06T08:50:32;10.60;99.90
23520;DHT22;11936;50.820;4.336;2023-04-06T08:52:58;10.60;99.90
23520;DHT22;11936;50.820;4.336;2023-04-06T08:55:27;10.50;99.90
23520;DHT22;11936;50.820;4.336;2023-04-06T08:57:54;10.60;99.90
23520;DHT22;11936;50.820;4.336;2023-04-06T09:00:21;10.70;99.90
23520;DHT22;11936;50.820;4.336;2023-04-06T09:02:47;10.60;99.90
23520;DHT22;11936;50.820;4.336;2023-04-06T09:05:15;10.60;99.90
23520;DHT22;11936;50.820;4.336;2023-04-06T09:07:41;10.50;99.90
23520;DHT22;11936;50.820;4.336;2023-04-06T09:10:07;10.50;99.90
23520;DHT22;11936;50.820;4.336;2023-04-06T09:12:34;10.40;99.90
23520;DHT22;11936;50.820;4.336;2023-04-06T09:15:01;10.20;99.90
23520;DHT22;11936;50.820;4.336;2023-04-06T09:17:29;10.20;99.90
23520;DHT22;11936;50.820;4.336;2023-04-06T09:19:55;10.40;99.90
23520;DHT22;11936;50.820;4.336;2023-04-06T09:22:21;10.50;99.90
23520;DHT22;11936;50.820;4.336;2023-04-06T09:24:51;10.70;99.90
23520;DHT22;11936;50.820;4.336;2023-04-06T09:27:17;10.50;99.90
23520;DHT22;11936;50.820;4.336;2023-04-06T09:29:44;10.70;99.90
23520;DHT22;11936;50.820;4.336;2023-04-06T09:32:13;10.70;99.90
23520;DHT22;11936;50.820;4.336;2023-04-06T09:34:42;10.70;99.90
23520;DHT22;11936;50.820;4.336;2023-04-06T09:37:18;10.60;99.90
23520;DHT22;11936;50.820;4.336;2023-04-06T09:39:45;10.40;99.90
23520;DHT22;11936;50.820;4.336;2023-04-06T09:42:24;10.50;99.90
23520;DHT22;11936;50.820;4.336;2023-04-06T09:44:51;10.60;99.90
23520;DHT22;11936;50.820;4.336;2023-04-06T09:47:17;10.50;99.90
23520;DHT22;11936;50.820;4.336;2023-04-06T09:49:43;10.50;99.90
23520;DHT22;11936;50.820;4.336;2023-04-06T09:52:11;10.50;99.90
23520;DHT22;11936;50.820;4.336;2023-04-06T09:54:38;10.50;99.90
23520;DHT22;11936;50.820;4.336;2023-04-06T09:57:26;10.50;99.90
23520;DHT22;11936;50.820;4.336;2023-04-06T10:00:04;10.70;99.90
23520;DHT22;11936;50.820;4.336;2023-04-06T10:03:07;10.80;99.90
23520;DHT22;11936;50.820;4.336;2023-04-06T10:05:43;10.80;99.90
23520;DHT22;11936;50.820;4.336;2023-04-06T10:08:13;10.60;99.90
23520;DHT22;11936;50.820;4.336;2023-04-06T10:10:39;10.80;99.90
23520;DHT22;11936;50.820;4.336;2023-04-06T10:13:05;10.80;99.90
23520;DHT22;11936;50.820;4.336;2023-04-06T10:15:31;10.70;99.90
23520;DHT22;11936;50.820;4.336;2023-04-06T10:18:01;10.60;99.90
23520;DHT22;11936;50.820;4.336;2023-04-06T10:20:42;10.50;99.90
23520;DHT22;11936;50.820;4.336;2023-04-06T10:23:13;10.60;99.90
23520;DHT22;11936;50.820;4.336;2023-04-06T10:28:19;10.80;99.90
23520;DHT22;11936;50.820;4.336;2023-04-06T10:30:45;10.90;99.90
23520;DHT22;11936;50.820;4.336;2023-04-06T10:33:14;10.70;99.90
23520;DHT22;11936;50.820;4.336;2023-04-06T10:35:40;10.80;99.90
23520;DHT22;11936;50.820;4.336;2023-04-06T10:38:06;10.80;99.90
23520;DHT22;11936;50.820;4.336;2023-04-06T10:40:36;10.60;99.90
23520;DHT22;11936;50.820;4.336;2023-04-06T10:43:19;10.50;99.90
23520;DHT22;11936;50.820;4.336;2023-04-06T10:45:57;10.60;99.90
23520;DHT22;11936;50.820;4.336;2023-04-06T10:48:23;10.70;99.90
23520;DHT22;11936;50.820;4.336;2023-04-06T10:50:53;10.60;99.90
23520;DHT22;11936;50.820;4.336;2023-04-06T10:53:23;10.60;99.90
23520;DHT22;11936;50.820;4.336;2023-04-06T10:55:56;10.50;99.90
23520;DHT22;11936;50.820;4.336;2023-04-06T10:58:28;10.60;99.90
23520;DHT22;11936;50.820;4.336;2023-04-06T11:00:55;10.80;99.90
23520;DHT22;11936;50.820;4.336;2023-04-06T11:03:21;10.70;99.90
23520;DHT22;11936;50.820;4.336;2023-04-06T11:05:51;10.90;99.90
23520;DHT22;11936;50.820;4.336;2023-04-06T11:08:32;11.00;99.90
23520;DHT22;11936;50.820;4.336;2023-04-06T11:11:13;11.10;99.90
23520;DHT22;11936;50.820;4.336;2023-04-06T11:14:09;11.10;99.90
23520;DHT22;11936;50.820;4.336;2023-04-06T11:16:35;11.00;99.90
23520;DHT22;11936;50.820;4.336;2023-04-06T11:19:02;11.00;99.90
23520;DHT22;11936;50.820;4.336;2023-04-06T11:21:32;10.80;99.90
23520;DHT22;11936;50.820;4.336;2023-04-06T11:24:18;10.70;99.90
23520;DHT22;11936;50.820;4.336;2023-04-06T11:26:53;10.60;99.90
23520;DHT22;11936;50.820;4.336;2023-04-06T11:29:30;10.60;99.90
23520;DHT22;11936;50.820;4.336;2023-04-06T11:32:04;10.60;99.90
23520;DHT22;11936;50.820;4.336;2023-04-06T11:34:36;10.60;99.90
23520;DHT22;11936;50.820;4.336;2023-04-06T11:37:10;10.60;99.90
23520;DHT22;11936;50.820;4.336;2023-04-06T11:39:58;10.70;99.90
23520;DHT22;11936;50.820;4.336;2023-04-06T11:42:28;10.60;99.90
23520;DHT22;11936;50.820;4.336;2023-04-06T11:44:58;10.70;99.90
23520;DHT22;11936;50.820;4.336;2023-04-06T11:47:37;10.60;99.90
23520;DHT22;11936;50.820;4.336;2023-04-06T11:50:13;10.80;99.90
23520;DHT22;11936;50.820;4.336;2023-04-06T11:52:40;10.80;99.90
23520;DHT22;11936;50.820;4.336;2023-04-06T11:55:17;10.60;99.90
23520;DHT22;11936;50.820;4.336;2023-04-06T11:57:44;10.60;99.90
23520;DHT22;11936;50.820;4.336;2023-04-06T12:00:10;10.80;99.90
23520;DHT22;11936;50.820;4.336;2023-04-06T12:02:39;11.00;99.90
23520;DHT22;11936;50.820;4.336;2023-04-06T12:05:06;10.90;99.90
23520;DHT22;11936;50.820;4.336;2023-04-06T12:07:32;11.00;99.90
23520;DHT22;11936;50.820;4.336;2023-04-06T12:09:59;11.00;99.90
23520;DHT22;11936;50.820;4.336;2023-04-06T12:12:25;11.10;99.90
23520;DHT22;11936;50.820;4.336;2023-04-06T12:14:51;11.20;99.90
23520;DHT22;11936;50.820;4.336;2023-04-06T12:17:17;11.10;99.90
23520;DHT22;11936;50.820;4.336;2023-04-06T12:19:43;11.20;99.90
23520;DHT22;11936;50.820;4.336;2023-04-06T12:22:09;11.40;99.90
23520;DHT22;11936;50.820;4.336;2023-04-06T12:24:34;11.10;99.90
23520;DHT22;11936;50.820;4.336;2023-04-06T12:27:00;11.10;99.90
23520;DHT22;11936;50.820;4.336;2023-04-06T12:29:29;11.10;99.90
23520;DHT22;11936;50.820;4.336;2023-04-06T12:31:55;11.10;99.90
23520;DHT22;11936;50.820;4.336;2023-04-06T12:34:21;11.20;99.90
23520;DHT22;11936;50.820;4.336;2023-04-06T12:36:47;11.10;99.90
23520;DHT22;11936;50.820;4.336;2023-04-06T12:39:13;11.20;99.90
23520;DHT22;11936;50.820;4.336;2023-04-06T12:41:38;11.30;99.90
23520;DHT22;11936;50.820;4.336;2023-04-06T12:44:07;11.20;99.90
23520;DHT22;11936;50.820;4.336;2023-04-06T12:46:32;11.00;99.90
23520;DHT22;11936;50.820;4.336;2023-04-06T12:48:58;11.20;99.90
23520;DHT22;11936;50.820;4.336;2023-04-06T12:51:27;10.90;99.90
23520;DHT22;11936;50.820;4.336;2023-04-06T12:53:53;10.80;99.90
23520;DHT22;11936;50.820;4.336;2023-04-06T12:56:19;10.90;99.90
23520;DHT22;11936;50.820;4.336;2023-04-06T12:58:46;10.90;99.90
23520;DHT22;11936;50.820;4.336;2023-04-06T13:01:12;10.90;99.90
23520;DHT22;11936;50.820;4.336;2023-04-06T13:03:39;10.90;99.90
23520;DHT22;11936;50.820;4.336;2023-04-06T13:06:05;11.00;99.90
23520;DHT22;11936;50.820;4.336;2023-04-06T13:08:31;11.00;99.90
23520;DHT22;11936;50.820;4.336;2023-04-06T13:10:56;11.10;99.90
23520;DHT22;11936;50.820;4.336;2023-04-06T13:13:29;11.00;99.90
23520;DHT22;11936;50.820;4.336;2023-04-06T13:16:03;10.90;99.90
23520;DHT22;11936;50.820;4.336;2023-04-06T13:18:29;11.00;99.90
23520;DHT22;11936;50.820;4.336;2023-04-06T13:20:56;10.90;99.90
23520;DHT22;11936;50.820;4.336;2023-04-06T13:23:22;10.80;99.90
23520;DHT22;11936;50.820;4.336;2023-04-06T13:25:56;10.80;99.90
23520;DHT22;11936;50.820;4.336;2023-04-06T13:28:21;10.80;99.90
23520;DHT22;11936;50.820;4.336;2023-04-06T13:30:48;10.80;99.90
23520;DHT22;11936;50.820;4.336;2023-04-06T13:33:14;10.90;99.90
23520;DHT22;11936;50.820;4.336;2023-04-06T13:35:39;11.00;99.90
23520;DHT22;11936;50.820;4.336;2023-04-06T13:38:09;10.90;99.90
23520;DHT22;11936;50.820;4.336;2023-04-06T13:40:41;10.90;99.90
23520;DHT22;11936;50.820;4.336;2023-04-06T13:43:07;10.90;99.90
23520;DHT22;11936;50.820;4.336;2023-04-06T13:45:33;11.00;99.90
23520;DHT22;11936;50.820;4.336;2023-04-06T13:47:59;11.10;99.90
23520;DHT22;11936;50.820;4.336;2023-04-06T13:50:28;11.10;99.90
23520;DHT22;11936;50.820;4.336;2023-04-06T13:52:54;11.30;99.90
23520;DHT22;11936;50.820;4.336;2023-04-06T13:55:21;11.10;99.90
23520;DHT22;11936;50.820;4.336;2023-04-06T13:57:52;11.00;99.90
23520;DHT22;11936;50.820;4.336;2023-04-06T14:00:18;11.00;99.90
23520;DHT22;11936;50.820;4.336;2023-04-06T14:02:44;10.90;99.90
23520;DHT22;11936;50.820;4.336;2023-04-06T14:05:10;10.80;99.90
23520;DHT22;11936;50.820;4.336;2023-04-06T14:07:36;10.90;99.90
23520;DHT22;11936;50.820;4.336;2023-04-06T14:10:02;11.10;99.90
23520;DHT22;11936;50.820;4.336;2023-04-06T14:12:28;11.30;99.90
23520;DHT22;11936;50.820;4.336;2023-04-06T14:14:53;11.40;99.90
23520;DHT22;11936;50.820;4.336;2023-04-06T14:17:19;11.40;99.90
23520;DHT22;11936;50.820;4.336;2023-04-06T14:19:44;11.40;99.90
23520;DHT22;11936;50.820;4.336;2023-04-06T14:22:10;11.40;99.90
23520;DHT22;11936;50.820;4.336;2023-04-06T14:24:36;11.30;99.90
23520;DHT22;11936;50.820;4.336;2023-04-06T14:27:02;11.30;99.90
23520;DHT22;11936;50.820;4.336;2023-04-06T14:29:28;11.20;99.90
23520;DHT22;11936;50.820;4.336;2023-04-06T14:31:54;11.20;99.90
23520;DHT22;11936;50.820;4.336;2023-04-06T14:34:28;11.20;99.90
23520;DHT22;11936;50.820;4.336;2023-04-06T14:36:54;11.00;99.90
23520;DHT22;11936;50.820;4.336;2023-04-06T14:39:21;10.90;99.90
23520;DHT22;11936;50.820;4.336;2023-04-06T14:41:46;10.90;99.90
23520;DHT22;11936;50.820;4.336;2023-04-06T14:44:15;11.10;99.90
23520;DHT22;11936;50.820;4.336;2023-04-06T14:46:41;11.10;99.90
23520;DHT22;11936;50.820;4.336;2023-04-06T14:49:07;11.10;99.90
23520;DHT22;11936;50.820;4.336;2023-04-06T14:51:34;11.20;99.90
23520;DHT22;11936;50.820;4.336;2023-04-06T14:54:01;11.30;99.90
23520;DHT22;11936;50.820;4.336;2023-04-06T14:56:28;11.30;99.90
23520;DHT22;11936;50.820;4.336;2023-04-06T14:58:57;11.30;99.90
23520;DHT22;11936;50.820;4.336;2023-04-06T15:01:23;11.30;99.90
23520;DHT22;11936;50.820;4.336;2023-04-06T15:03:49;11.30;99.90
23520;DHT22;11936;50.820;4.336;2023-04-06T15:06:15;11.30;99.90
23520;DHT22;11936;50.820;4.336;2023-04-06T15:08:42;11.40;99.90
23520;DHT22;11936;50.820;4.336;2023-04-06T15:11:08;11.50;99.90
23520;DHT22;11936;50.820;4.336;2023-04-06T15:13:34;11.70;99.90
23520;DHT22;11936;50.820;4.336;2023-04-06T15:15:59;11.70;99.90
23520;DHT22;11936;50.820;4.336;2023-04-06T15:18:25;11.80;99.90
23520;DHT22;11936;50.820;4.336;2023-04-06T15:20:51;11.80;99.90
23520;DHT22;11936;50.820;4.336;2023-04-06T15:23:17;11.80;99.90
23520;DHT22;11936;50.820;4.336;2023-04-06T15:25:43;11.80;99.90
23520;DHT22;11936;50.820;4.336;2023-04-06T15:28:09;11.90;99.90
23520;DHT22;11936;50.820;4.336;2023-04-06T15:30:35;12.00;99.90
23520;DHT22;11936;50.820;4.336;2023-04-06T15:33:01;11.90;99.90